Brandon, MS (39042)

10:05 AM CDT on August 30, 2015 (GMT -0500)
Country Meadows | | Change Station
CLOSE
Current Station
Personal Weather Station
Location: Brandon, MS
Elevation: 367 ft
Nearby Weather Stations

Elev 367 ft 32.25 °N, 90.01 °W | Updated 3 minutes ago

Clear
Clear
80.8 °F
Feels Like 85 °F
N
0.0
Wind Variable Wind from SSW

Today
High -- | Low -- °F
--% Chance of Precip.
Yesterday
High -- | Low -- °F
Precip. -- in
6:33 AM 7:26 PM
Full, 99% visible
Pressure 30.05 in
Visibility 10.0 miles
Clouds Few 10000 ft
Heat Index 85 °F
Dew Point 72 °F
Humidity 75%
Rainfall 0.00 in
Snow Depth Not available.
UV 5 out of 12
Pollen 9.20 out of 12
Air Quality Not available.
Flu Activity Not available.
METAR KJAN 301454Z 20003KT 10SM FEW100 28/19 A3006 RMK AO2 SLP175 T02780194 51010
Pressure 30.05 in
Visibility 10.0 miles
Clouds Few 10000 ft
Heat Index 85 °F
Dew Point 72 °F
Humidity 75%
Rainfall 0.00 in
Snow Depth Not available.
UV 5 out of 12
Pollen 9.20 out of 12
Air Quality Not available.
Flu Activity Not available.
METAR KJAN 301454Z 20003KT 10SM FEW100 28/19 A3006 RMK AO2 SLP175 T02780194 51010

10-Day Weather Forecast

×

Almanac

Astronomy

Aug. 30, 2015 Rise Set
Actual Time
Civil Twilight
Nautical Twilight
Astronomical Twilight
Moon
Length of Visible Light
Length of Day
Tomorrow will be .
, % of the Moon is Illuminated

Today's Extremes

State Highs State Lows

Community

WunderPhotos

Upload Photos

1,850,984 photos uploaded!

WunderBlogs® & News

Nearby

Air Quality

  Air Quality AQ Index Pollutant
Not available.

Snow Depth

Station Depth Elevation

Earthquake Activity

City Distance Mag. Time & Date
Minimum magnitude displayed is 2.5.

Coastal Water Temperatures

Place Temperature

Stations

Nearby Weather Stations

Station Location Temp. Windchill Dew Point Humidity Wind Precip. Elev Updated Type